TimeAST,TemperatureF,Dew PointF,Humidity,Sea Level PressureIn,VisibilityMPH,Wind Direction,Wind SpeedMPH,Gust SpeedMPH,PrecipitationIn,Events,Conditions,WindDirDegrees,DateUTC
12:00 AM,40.5,33.1,75,30.21,-9999.0,NNW,17.3,-,N/A,,Unknown,330,2012-11-17 04:00:00
12:20 AM,40.6,33.6,76,-9999,-9999.0,NNW,11.5,-,N/A,,Unknown,330,2012-11-17 04:20:00
12:40 AM,40.8,33.1,74,-9999,-9999.0,NNW,15.0,-,N/A,,Unknown,330,2012-11-17 04:40:00
1:00 AM,41.0,34.7,78,30.21,-9999.0,NNW,17.3,-,N/A,,Unknown,340,2012-11-17 05:00:00
1:20 AM,41.4,34.9,78,-9999,-9999.0,NNW,18.4,-,N/A,,Unknown,330,2012-11-17 05:20:00
1:40 AM,41.0,34.3,77,-9999,-9999.0,NNW,18.4,-,N/A,,Unknown,340,2012-11-17 05:40:00
2:00 AM,40.5,33.4,76,30.23,-9999.0,NNW,18.4,-,N/A,,Unknown,330,2012-11-17 06:00:00
2:20 AM,40.8,34.2,77,-9999,-9999.0,NNW,17.3,23.0,N/A,,Unknown,330,2012-11-17 06:20:00
2:40 AM,40.8,34.9,79,-9999,-9999.0,NW,17.3,-,N/A,,Unknown,320,2012-11-17 06:40:00
3:00 AM,41.2,35.6,81,30.23,-9999.0,NW,17.3,-,N/A,,Unknown,320,2012-11-17 07:00:00
3:20 AM,41.2,36.0,82,-9999,-9999.0,NW,17.3,23.0,N/A,,Unknown,320,2012-11-17 07:20:00
3:40 AM,41.2,35.8,81,-9999,-9999.0,NNW,17.3,-,N/A,,Unknown,330,2012-11-17 07:40:00
4:00 AM,41.0,35.4,81,30.24,-9999.0,NW,17.3,-,N/A,,Unknown,320,2012-11-17 08:00:00
4:20 AM,41.4,35.6,80,-9999,-9999.0,NW,16.1,-,N/A,,Unknown,320,2012-11-17 08:20:00
4:40 AM,41.4,36.7,83,-9999,-9999.0,NNW,15.0,25.3,N/A,,Unknown,330,2012-11-17 08:40:00
5:00 AM,41.4,36.1,82,30.26,-9999.0,NW,20.7,-,N/A,,Unknown,320,2012-11-17 09:00:00
5:20 AM,41.2,35.1,79,-9999,-9999.0,NW,21.9,-,N/A,,Unknown,320,2012-11-17 09:20:00
5:40 AM,41.5,36.1,81,-9999,-9999.0,NW,19.6,-,N/A,,Unknown,320,2012-11-17 09:40:00
6:00 AM,41.2,35.1,79,30.28,-9999.0,NNW,21.9,-,N/A,,Unknown,330,2012-11-17 10:00:00
6:20 AM,41.4,35.2,79,-9999,-9999.0,NW,19.6,25.3,N/A,,Unknown,320,2012-11-17 10:20:00
6:40 AM,41.4,35.2,79,-9999,-9999.0,NW,19.6,-,N/A,,Unknown,310,2012-11-17 10:40:00
7:00 AM,41.7,35.8,79,30.30,-9999.0,NW,20.7,-,N/A,,Unknown,320,2012-11-17 11:00:00
7:20 AM,41.9,35.2,77,-9999,-9999.0,NW,20.7,-,N/A,,Unknown,310,2012-11-17 11:20:00
7:40 AM,41.9,35.4,78,-9999,-9999.0,NW,20.7,-,N/A,,Unknown,310,2012-11-17 11:40:00
8:00 AM,41.9,35.4,78,30.32,-9999.0,NW,21.9,-,N/A,,Unknown,310,2012-11-17 12:00:00
8:20 AM,41.9,35.1,77,-9999,-9999.0,NW,20.7,-,N/A,,Unknown,310,2012-11-17 12:20:00
8:40 AM,40.1,36.0,85,-9999,-9999.0,NW,24.2,-,N/A,,Unknown,320,2012-11-17 12:40:00
9:00 AM,40.6,36.9,86,30.34,-9999.0,NW,24.2,-,N/A,,Unknown,320,2012-11-17 13:00:00
9:20 AM,42.3,37.9,85,-9999,-9999.0,NW,19.6,-,N/A,,Unknown,320,2012-11-17 13:20:00
9:40 AM,41.7,37.6,85,-9999,-9999.0,NNW,21.9,-,N/A,,Unknown,340,2012-11-17 13:40:00
10:00 AM,41.7,35.6,79,30.37,-9999.0,NNW,23.0,-,N/A,,Unknown,340,2012-11-17 14:00:00
10:20 AM,41.5,36.7,83,-9999,-9999.0,NNW,18.4,25.3,N/A,,Unknown,330,2012-11-17 14:20:00
10:40 AM,42.1,36.3,80,-9999,-9999.0,NNW,20.7,-,N/A,,Unknown,330,2012-11-17 14:40:00
11:00 AM,41.0,36.5,84,30.38,-9999.0,NNW,23.0,-,N/A,,Unknown,340,2012-11-17 15:00:00
11:20 AM,41.9,35.8,79,-9999,-9999.0,NNW,20.7,-,N/A,,Unknown,340,2012-11-17 15:20:00
11:40 AM,37.8,33.4,84,-9999,-9999.0,NNW,19.6,28.8,N/A,,Unknown,340,2012-11-17 15:40:00
12:00 PM,40.5,36.1,85,30.38,-9999.0,North,26.5,-,N/A,,Unknown,350,2012-11-17 16:00:00
12:20 PM,40.6,35.4,82,-9999,-9999.0,North,20.7,-,N/A,,Unknown,350,2012-11-17 16:20:00
12:40 PM,39.2,34.0,82,-9999,-9999.0,North,19.6,-,N/A,,Unknown,350,2012-11-17 16:40:00
1:00 PM,40.6,34.9,80,30.40,-9999.0,NNW,23.0,-,N/A,,Unknown,340,2012-11-17 17:00:00
1:20 PM,40.8,33.6,76,-9999,-9999.0,NNW,18.4,-,N/A,,Unknown,340,2012-11-17 17:20:00
1:40 PM,40.3,31.5,71,-9999,-9999.0,NNW,19.6,-,N/A,,Unknown,330,2012-11-17 17:40:00
2:00 PM,39.9,32.0,73,30.41,-9999.0,NNW,21.9,-,N/A,,Unknown,340,2012-11-17 18:00:00
2:20 PM,39.9,33.1,77,-9999,-9999.0,NNW,19.6,-,N/A,,Unknown,340,2012-11-17 18:20:00
2:40 PM,39.7,31.3,72,-9999,-9999.0,NNW,20.7,27.6,N/A,,Unknown,340,2012-11-17 18:40:00
3:00 PM,39.4,32.0,75,30.44,-9999.0,NNW,23.0,-,N/A,,Unknown,340,2012-11-17 19:00:00
3:20 PM,39.2,30.7,72,-9999,-9999.0,NNW,18.4,-,N/A,,Unknown,330,2012-11-17 19:20:00
3:40 PM,39.2,31.1,73,-9999,-9999.0,NNW,19.6,-,N/A,,Unknown,330,2012-11-17 19:40:00
4:00 PM,38.5,29.7,71,30.46,-9999.0,NNW,20.7,-,N/A,,Unknown,330,2012-11-17 20:00:00
4:20 PM,38.1,28.6,69,-9999,-9999.0,NW,19.6,-,N/A,,Unknown,320,2012-11-17 20:20:00
4:40 PM,38.5,30.2,72,-9999,-9999.0,NW,17.3,-,N/A,,Unknown,320,2012-11-17 20:40:00
5:00 PM,37.9,29.5,72,30.47,-9999.0,NNW,19.6,-,N/A,,Unknown,330,2012-11-17 21:00:00
5:20 PM,37.6,29.1,72,-9999,-9999.0,NNW,17.3,24.2,N/A,,Unknown,330,2012-11-17 21:20:00
5:40 PM,37.4,29.1,72,-9999,-9999.0,NNW,18.4,25.3,N/A,,Unknown,330,2012-11-17 21:40:00
6:00 PM,36.9,28.6,72,30.49,-9999.0,NNW,18.4,-,N/A,,Unknown,330,2012-11-17 22:00:00
6:20 PM,36.7,28.4,72,-9999,-9999.0,NW,16.1,-,N/A,,Unknown,320,2012-11-17 22:20:00
6:40 PM,37.4,29.5,73,-9999,-9999.0,NNW,15.0,-,N/A,,Unknown,330,2012-11-17 22:40:00
7:00 PM,37.2,29.5,74,30.51,-9999.0,NW,17.3,-,N/A,,Unknown,320,2012-11-17 23:00:00
7:20 PM,36.9,28.9,73,-9999,-9999.0,NW,16.1,-,N/A,,Unknown,320,2012-11-17 23:20:00
7:40 PM,36.5,28.0,71,-9999,-9999.0,NNW,15.0,-,N/A,,Unknown,330,2012-11-17 23:40:00
8:00 PM,36.7,28.6,72,30.53,-9999.0,NW,17.3,-,N/A,,Unknown,320,2012-11-18 00:00:00
8:20 PM,36.0,27.3,71,-9999,-9999.0,NW,16.1,23.0,N/A,,Unknown,320,2012-11-18 00:20:00
8:40 PM,36.5,28.4,72,-9999,-9999.0,NNW,15.0,-,N/A,,Unknown,340,2012-11-18 00:40:00
9:00 PM,36.5,28.2,72,30.53,-9999.0,NW,17.3,23.0,N/A,,Unknown,320,2012-11-18 01:00:00
9:20 PM,36.9,28.8,72,-9999,-9999.0,NW,16.1,24.2,N/A,,Unknown,320,2012-11-18 01:20:00
9:40 PM,36.5,28.4,72,-9999,-9999.0,NW,17.3,-,N/A,,Unknown,320,2012-11-18 01:40:00
10:00 PM,36.9,28.8,72,30.53,-9999.0,NNW,18.4,-,N/A,,Unknown,330,2012-11-18 02:00:00
10:20 PM,36.9,29.3,74,-9999,-9999.0,NNW,15.0,-,N/A,,Unknown,330,2012-11-18 02:20:00
10:40 PM,36.7,28.6,72,-9999,-9999.0,NW,18.4,24.2,N/A,,Unknown,320,2012-11-18 02:40:00
11:00 PM,37.0,29.7,75,30.53,-9999.0,NNW,18.4,-,N/A,,Unknown,330,2012-11-18 03:00:00
11:20 PM,36.5,28.2,72,-9999,-9999.0,NW,17.3,-,N/A,,Unknown,320,2012-11-18 03:20:00
11:40 PM,36.7,28.8,73,-9999,-9999.0,NW,13.8,-,N/A,,Unknown,320,2012-11-18 03:40:00